Etusivu
METAR-TAF:

METAR-TAF

Lentoasemat :

Northeast Alabama Regional Airport

Gadsden, Alabama, Yhdysvallat

Leveyspiiri: 33-58N, Pituuspiiri: 086-05W, korkeus merenpinnasta: 173 m

Tämänhetkinen sää

Tämä raportti tehtiin 35 minuuttia sitten, kello 11.56 UTC
Tuuli 5 kn koillisesta
Lämpötila 12°C
Kosteus 100%
Ilmanpaine 1019 hPa
Näkyvyys: 8.0 km
Pilvistä 400 ft:n korkeudessa
utua

METAR: KGAD 181156Z AUTO 04005KT 5SM BR OVC004 12/12 A3009 RMK AO2 RAE29 SLP194 P0008 60034 70034 T01170117 10128 20117 56005

Aika: 06:31 (12:31 UTC)


TAF: puuttuu

Säähavainnot ja -ennusteet yli 4000 lentoasemalta (METAR- ja TAF-raportit).

Käytössä olevat sääasemat on merkitty karttaan keltaisilla ja punaisilla pisteillä.

Aseta hiiri pisteen päälle nähdäksesi sääaseman nimen.

Klikkaa sitten nähdäksesi säähavainnot ja -ennusteet.

Kartan vaihtaminen: klikkaa mustalla rastilla varustettuja vihreitä pisteitä, niin voit zoomata sisään; viivalla varustettua vihreää pistettä, niin voit zoomata ulos tai vihreitä nuolia, niin pääset viereisille kartoille.


METAR-TAF: